Time;durP1;ratioP1;P1;durP2;ratioP2;P2;SDS_P1;SDS_P2;PMS_P1;PMS_P2;Temp;Humidity;BMP_temperature;BMP_pressure;BME280_temperature;BME280_humidity;BME280_pressure;Samples;Min_cycle;Max_cycle;Signal;HPM_P1;HPM_P2
2023/05/21 00:02:21;;;;;;;35.83;24.60;;;10.50;99.90;;;;;;8350277;28;20352;-65
2023/05/21 00:06:22;;;;;;;32.87;24.00;;;10.50;99.90;;;;;;8349276;28;20303;-65
2023/05/21 00:10:23;;;;;;;28.80;21.67;;;10.50;99.90;;;;;;8350030;28;20273;-65
2023/05/21 00:14:24;;;;;;;32.23;25.23;;;10.50;99.90;;;;;;8345282;28;20249;-65
2023/05/21 00:18:25;;;;;;;38.60;31.40;;;10.50;99.90;;;;;;8351002;28;20180;-64
2023/05/21 00:22:26;;;;;;;39.53;28.43;;;10.60;99.90;;;;;;8343518;28;20188;-65
2023/05/21 00:26:27;;;;;;;31.83;26.87;;;10.60;99.90;;;;;;8348851;28;20185;-65
2023/05/21 00:30:29;;;;;;;28.27;22.70;;;10.60;99.90;;;;;;8347829;28;20189;-65
2023/05/21 00:34:30;;;;;;;26.53;22.13;;;10.70;99.90;;;;;;8348526;28;20247;-65
2023/05/21 00:38:31;;;;;;;29.10;22.70;;;10.60;99.90;;;;;;8349790;28;20176;-65
2023/05/21 00:42:32;;;;;;;29.90;23.93;;;10.60;99.90;;;;;;8337419;28;20190;-65
2023/05/21 00:46:33;;;;;;;29.40;23.40;;;10.60;99.90;;;;;;8334609;28;20200;-65
2023/05/21 00:50:35;;;;;;;33.03;24.63;;;10.60;99.90;;;;;;8344280;28;20184;-65
2023/05/21 00:54:36;;;;;;;31.60;24.40;;;10.50;99.90;;;;;;8353152;28;20212;-66
2023/05/21 00:58:39;;;;;;;34.13;26.07;;;10.60;99.90;;;;;;8347101;28;20194;-65
2023/05/21 01:02:40;;;;;;;34.33;25.70;;;10.50;99.90;;;;;;8350203;28;20216;-65
2023/05/21 01:06:41;;;;;;;29.40;23.43;;;10.50;99.90;;;;;;8346104;28;20226;-64
2023/05/21 01:10:43;;;;;;;26.43;22.00;;;10.40;99.90;;;;;;8353464;28;20200;-64
2023/05/21 01:14:44;;;;;;;26.17;21.70;;;10.40;99.90;;;;;;8360282;28;20208;-65
2023/05/21 01:18:45;;;;;;;25.17;20.47;;;10.30;99.90;;;;;;8353427;28;20184;-64
2023/05/21 01:22:54;;;;;;;33.40;25.33;;;10.20;99.90;;;;;;8364117;28;20200;-64
2023/05/21 01:26:54;;;;;;;42.57;27.90;;;10.10;99.90;;;;;;8347258;28;20187;-64
2023/05/21 01:31:06;;;;;;;35.80;26.83;;;10.10;99.90;;;;;;8348023;28;20194;-64
2023/05/21 01:35:15;;;;;;;32.50;24.97;;;10.10;99.90;;;;;;8347054;28;20211;-64
2023/05/21 01:39:27;;;;;;;27.73;22.33;;;10.00;99.90;;;;;;8347801;28;20189;-66
2023/05/21 01:43:31;;;;;;;32.13;23.70;;;9.90;99.90;;;;;;8372615;28;20225;-66
2023/05/21 01:47:35;;;;;;;26.70;21.90;;;9.90;99.90;;;;;;8345909;28;20186;-64
2023/05/21 01:51:37;;;;;;;27.40;22.03;;;9.80;99.90;;;;;;8348774;28;20191;-65
2023/05/21 01:55:40;;;;;;;26.87;20.17;;;9.70;99.90;;;;;;8354147;28;20270;-66
2023/05/21 01:59:44;;;;;;;22.80;18.73;;;9.60;99.90;;;;;;8354331;28;20189;-64
2023/05/21 02:03:45;;;;;;;22.53;18.60;;;9.50;99.90;;;;;;8354627;28;20199;-64
2023/05/21 02:07:50;;;;;;;23.67;18.83;;;9.40;99.90;;;;;;8353844;28;20197;-65
2023/05/21 02:11:51;;;;;;;24.50;19.60;;;9.30;99.90;;;;;;8354195;28;20175;-65
2023/05/21 02:15:53;;;;;;;29.67;23.67;;;9.20;99.90;;;;;;8356627;28;20209;-66
2023/05/21 02:19:54;;;;;;;30.43;23.50;;;9.30;99.90;;;;;;8353230;28;20190;-66
2023/05/21 02:23:59;;;;;;;33.43;25.20;;;9.30;99.90;;;;;;8350305;28;20189;-65
2023/05/21 02:28:01;;;;;;;36.97;27.53;;;9.30;99.90;;;;;;8354023;28;20184;-65
2023/05/21 02:32:02;;;;;;;35.43;26.37;;;9.40;99.90;;;;;;8349746;28;20182;-66
2023/05/21 02:36:03;;;;;;;34.07;25.27;;;9.50;99.90;;;;;;8352283;28;20201;-66
2023/05/21 02:40:06;;;;;;;32.90;26.47;;;9.50;99.90;;;;;;8347517;28;20173;-66
2023/05/21 02:44:06;;;;;;;41.60;30.60;;;9.60;99.90;;;;;;8347779;28;20192;-67
2023/05/21 02:48:07;;;;;;;37.23;29.50;;;9.80;99.90;;;;;;8354783;28;20196;-66
2023/05/21 02:52:08;;;;;;;34.13;26.27;;;9.90;99.90;;;;;;8351670;28;20194;-65
2023/05/21 02:56:11;;;;;;;31.43;24.47;;;9.80;99.90;;;;;;8364311;28;20214;-65
2023/05/21 03:00:12;;;;;;;28.67;22.03;;;9.60;99.90;;;;;;8347147;28;20232;-66
2023/05/21 03:04:13;;;;;;;23.37;20.10;;;9.50;99.90;;;;;;8349915;28;20213;-65
2023/05/21 03:08:14;;;;;;;24.00;19.90;;;9.40;99.90;;;;;;8347082;28;20284;-66
2023/05/21 03:12:15;;;;;;;25.53;21.80;;;9.30;99.90;;;;;;8345588;28;20186;-68
2023/05/21 03:16:16;;;;;;;32.47;25.10;;;9.30;99.90;;;;;;8345340;28;20202;-69
2023/05/21 03:20:17;;;;;;;28.87;23.67;;;9.50;99.90;;;;;;8345110;28;20265;-69
2023/05/21 03:24:18;;;;;;;30.67;22.93;;;9.60;99.90;;;;;;8349500;28;20184;-70
2023/05/21 03:28:20;;;;;;;30.30;23.33;;;9.60;99.90;;;;;;8342273;28;20194;-72
2023/05/21 03:32:24;;;;;;;34.20;24.70;;;9.70;99.90;;;;;;8342596;28;20223;-70
2023/05/21 03:36:26;;;;;;;32.37;25.53;;;9.80;99.90;;;;;;8338753;28;20267;-69
2023/05/21 03:40:27;;;;;;;29.07;24.00;;;10.00;99.90;;;;;;8345830;28;20234;-69
2023/05/21 03:44:31;;;;;;;29.73;23.90;;;10.20;99.90;;;;;;8349417;28;20198;-68
2023/05/21 03:48:32;;;;;;;28.47;23.80;;;10.60;99.90;;;;;;8351153;28;20204;-70
2023/05/21 03:52:33;;;;;;;27.13;23.80;;;10.90;99.90;;;;;;8348925;28;20202;-67
2023/05/21 03:56:34;;;;;;;30.90;26.00;;;11.00;99.90;;;;;;8349757;28;20259;-69
2023/05/21 04:00:39;;;;;;;30.67;26.93;;;11.40;99.90;;;;;;8340808;28;20180;-68
2023/05/21 04:04:40;;;;;;;29.00;24.43;;;12.10;99.90;;;;;;8343340;28;20209;-73
2023/05/21 04:08:42;;;;;;;28.53;25.47;;;13.00;99.90;;;;;;8341518;28;20212;-70
2023/05/21 04:12:42;;;;;;;27.27;23.87;;;13.80;99.90;;;;;;8347078;28;20257;-69
2023/05/21 04:16:43;;;;;;;28.40;24.10;;;14.50;99.90;;;;;;8344590;28;20228;-69
2023/05/21 04:20:45;;;;;;;27.40;23.27;;;15.10;99.90;;;;;;8341107;28;20189;-69
2023/05/21 04:24:47;;;;;;;25.23;21.17;;;15.70;99.90;;;;;;8344586;28;20190;-69
2023/05/21 04:28:49;;;;;;;22.33;19.93;;;16.20;99.90;;;;;;8343329;28;20182;-67
2023/05/21 04:32:57;;;;;;;19.83;17.83;;;16.70;99.90;;;;;;8348875;28;20213;-68
2023/05/21 04:36:58;;;;;;;20.67;18.57;;;16.80;99.90;;;;;;8335141;28;20268;-68
2023/05/21 04:41:02;;;;;;;18.83;16.77;;;17.20;59.80;;;;;;8348115;28;20220;-67
2023/05/21 04:45:03;;;;;;;19.23;16.70;;;17.50;1.00;;;;;;8344906;28;20182;-67
2023/05/21 04:49:09;;;;;;;19.53;16.57;;;17.60;1.00;;;;;;8345512;28;20185;-67
2023/05/21 04:53:10;;;;;;;16.43;14.73;;;17.80;99.90;;;;;;8341101;28;20289;-67
2023/05/21 04:57:11;;;;;;;18.33;15.10;;;18.00;99.90;;;;;;8354893;28;20221;-68
2023/05/21 05:01:12;;;;;;;16.03;14.37;;;17.90;99.90;;;;;;8340476;28;20185;-69
2023/05/21 05:05:12;;;;;;;15.70;14.20;;;17.70;99.90;;;;;;8336343;28;20275;-67
2023/05/21 05:09:13;;;;;;;16.37;14.47;;;17.50;99.90;;;;;;8346534;28;20201;-66
2023/05/21 05:13:15;;;;;;;18.23;14.67;;;17.20;1.00;;;;;;8350628;28;20178;-68
2023/05/21 05:17:16;;;;;;;14.93;13.43;;;17.10;1.00;;;;;;8336711;28;20205;-66
2023/05/21 05:21:21;;;;;;;16.37;14.60;;;16.80;1.00;;;;;;8353778;28;20197;-69
2023/05/21 05:25:23;;;;;;;15.93;13.60;;;16.80;1.00;;;;;;8347270;28;20261;-69
2023/05/21 05:29:24;;;;;;;14.33;12.83;;;16.90;1.00;;;;;;8352070;28;20189;-69
2023/05/21 05:33:25;;;;;;;15.23;13.50;;;17.00;1.00;;;;;;8346278;28;20224;-67
2023/05/21 05:37:29;;;;;;;16.90;13.27;;;17.10;1.00;;;;;;8353504;28;20287;-66
2023/05/21 05:41:30;;;;;;;14.77;12.60;;;17.10;1.00;;;;;;8352743;28;20197;-70
2023/05/21 05:45:31;;;;;;;15.17;12.60;;;17.20;1.00;;;;;;8349945;28;20470;-67
2023/05/21 05:49:32;;;;;;;14.63;11.80;;;17.40;1.00;;;;;;8340596;28;20236;-69
2023/05/21 05:53:33;;;;;;;16.17;12.50;;;17.60;1.00;;;;;;8351485;28;20227;-67
2023/05/21 05:57:37;;;;;;;13.93;11.93;;;17.80;1.00;;;;;;8351079;28;20213;-67
2023/05/21 06:01:38;;;;;;;12.83;11.53;;;18.00;99.90;;;;;;8349618;28;20248;-66
2023/05/21 06:05:40;;;;;;;13.83;12.07;;;18.30;99.90;;;;;;8350827;28;20218;-67
2023/05/21 06:09:41;;;;;;;12.57;11.13;;;18.60;99.90;;;;;;8348437;28;20284;-68
2023/05/21 06:13:42;;;;;;;13.03;11.63;;;18.70;99.90;;;;;;8353029;28;20189;-68
2023/05/21 06:17:43;;;;;;;13.47;12.03;;;18.90;99.90;;;;;;8359114;28;20189;-68
2023/05/21 06:21:45;;;;;;;13.17;11.60;;;19.00;99.90;;;;;;8344188;28;20194;-68
2023/05/21 06:25:46;;;;;;;13.90;10.90;;;19.20;99.90;;;;;;8340908;28;20202;-69
2023/05/21 06:29:47;;;;;;;13.63;12.00;;;19.40;99.90;;;;;;8350957;28;20212;-68
2023/05/21 06:33:48;;;;;;;12.50;11.20;;;19.50;99.90;;;;;;8359455;28;20190;-68
2023/05/21 06:37:50;;;;;;;13.97;11.40;;;19.70;99.90;;;;;;8347142;28;20243;-67
2023/05/21 06:41:51;;;;;;;13.40;12.00;;;19.60;99.90;;;;;;8336637;28;20252;-67
2023/05/21 06:45:52;;;;;;;13.87;11.87;;;19.60;99.90;;;;;;8350787;28;20244;-66
2023/05/21 06:49:53;;;;;;;13.47;12.07;;;19.60;99.90;;;;;;8351635;28;20186;-69
2023/05/21 06:53:54;;;;;;;13.53;11.93;;;19.70;99.90;;;;;;8350262;28;20196;-66
2023/05/21 06:57:56;;;;;;;12.90;11.13;;;19.80;99.90;;;;;;8360310;28;20186;-68
2023/05/21 07:01:58;;;;;;;12.03;9.97;;;19.90;99.90;;;;;;8353507;28;20250;-68
2023/05/21 07:06:02;;;;;;;13.17;10.77;;;20.10;99.90;;;;;;8347528;28;20185;-67
2023/05/21 07:10:03;;;;;;;11.70;10.50;;;20.20;99.90;;;;;;8346598;28;20229;-67
2023/05/21 07:14:04;;;;;;;15.53;11.33;;;20.20;99.90;;;;;;8349798;28;20209;-65
2023/05/21 07:18:06;;;;;;;12.40;10.30;;;20.20;99.90;;;;;;8345233;28;20191;-66
2023/05/21 07:22:07;;;;;;;13.80;12.43;;;20.50;99.90;;;;;;8352134;28;20182;-66
2023/05/21 07:26:10;;;;;;;12.70;11.37;;;20.80;99.90;;;;;;8347540;28;20200;-69
2023/05/21 07:30:11;;;;;;;13.37;11.03;;;21.00;99.90;;;;;;8348827;28;20200;-66
2023/05/21 07:34:18;;;;;;;13.37;11.60;;;21.00;99.90;;;;;;8343621;28;20214;-68
2023/05/21 07:38:26;;;;;;;11.80;10.40;;;21.30;99.90;;;;;;8350268;28;20197;-68
2023/05/21 07:42:30;;;;;;;13.47;12.03;;;21.40;99.90;;;;;;8350182;28;20201;-67
2023/05/21 07:46:31;;;;;;;17.37;11.77;;;21.50;99.90;;;;;;8362395;28;20205;-67
2023/05/21 07:50:34;;;;;;;12.73;11.43;;;21.70;99.90;;;;;;8345765;28;20195;-67
2023/05/21 07:54:36;;;;;;;13.23;11.87;;;21.80;99.90;;;;;;8347903;28;20206;-69
2023/05/21 07:58:37;;;;;;;11.43;10.23;;;22.10;99.90;;;;;;8346960;28;20186;-67
2023/05/21 08:02:40;;;;;;;12.70;10.60;;;22.20;99.90;;;;;;8351091;28;20205;-68
2023/05/21 08:06:43;;;;;;;12.67;11.37;;;22.10;99.90;;;;;;8349590;28;20193;-66
2023/05/21 08:10:46;;;;;;;12.97;11.30;;;22.30;99.90;;;;;;8346069;28;20229;-66
2023/05/21 08:14:48;;;;;;;12.17;10.97;;;22.30;99.90;;;;;;8336671;28;20206;-67
2023/05/21 08:18:51;;;;;;;10.60;9.33;;;22.30;99.90;;;;;;8343943;28;20280;-68
2023/05/21 08:22:52;;;;;;;11.07;9.97;;;22.40;99.90;;;;;;8348101;28;20198;-65
2023/05/21 08:26:53;;;;;;;10.60;9.50;;;22.50;99.90;;;;;;8342672;28;20199;-66
2023/05/21 08:30:55;;;;;;;10.73;9.63;;;22.60;96.80;;;;;;8345334;28;20289;-67
2023/05/21 08:34:57;;;;;;;10.23;8.63;;;22.70;98.90;;;;;;8343516;28;20201;-67
2023/05/21 08:38:58;;;;;;;8.30;7.53;;;22.80;74.70;;;;;;8347968;28;20255;-67
2023/05/21 08:43:02;;;;;;;13.10;8.50;;;23.00;48.60;;;;;;8346473;28;20183;-68
2023/05/21 08:47:06;;;;;;;9.37;8.03;;;23.10;41.00;;;;;;8348290;28;20189;-68
2023/05/21 08:51:07;;;;;;;8.23;7.43;;;23.20;40.50;;;;;;8347621;28;20189;-67
2023/05/21 08:55:09;;;;;;;10.20;8.07;;;23.50;45.80;;;;;;8343513;28;20272;-65
2023/05/21 08:59:11;;;;;;;9.47;7.80;;;23.70;27.90;;;;;;8342279;28;20178;-65
2023/05/21 09:03:16;;;;;;;9.60;8.70;;;23.80;30.90;;;;;;8347169;28;20209;-70
2023/05/21 09:07:18;;;;;;;10.73;7.73;;;23.80;27.10;;;;;;8349136;28;20208;-68
2023/05/21 09:11:22;;;;;;;9.83;8.83;;;24.00;21.00;;;;;;8349229;28;20275;-68
2023/05/21 09:15:23;;;;;;;13.03;7.40;;;24.10;27.10;;;;;;8341734;28;20302;-68
2023/05/21 09:19:24;;;;;;;8.97;6.83;;;24.20;7.50;;;;;;8342553;28;20251;-67
2023/05/21 09:23:31;;;;;;;12.03;6.93;;;24.20;1.00;;;;;;8346955;28;20190;-67
2023/05/21 09:27:33;;;;;;;7.00;6.30;;;24.20;1.00;;;;;;8344009;28;20195;-69
2023/05/21 09:31:33;;;;;;;8.65;6.00;;;24.20;1.00;;;;;;8345428;28;20263;-66
2023/05/21 09:35:35;;;;;;;6.50;5.90;;;24.40;1.00;;;;;;8339799;28;20218;-68
2023/05/21 09:39:44;;;;;;;6.83;6.13;;;24.50;1.00;;;;;;8344976;28;20186;-69
2023/05/21 09:43:48;;;;;;;7.60;6.18;;;24.70;1.00;;;;;;8347380;28;20186;-69
2023/05/21 09:47:52;;;;;;;10.30;6.05;;;25.00;1.00;;;;;;8344618;28;20200;-67
2023/05/21 09:51:57;;;;;;;6.93;6.05;;;25.30;1.00;;;;;;8345005;28;20186;-68
2023/05/21 09:55:59;;;;;;;6.88;5.90;;;25.50;1.00;;;;;;8343379;28;20198;-68
2023/05/21 10:00:00;;;;;;;6.55;5.00;;;25.70;1.00;;;;;;8350857;28;20186;-68
2023/05/21 10:04:07;;;;;;;5.20;4.70;;;25.80;1.00;;;;;;8352766;28;20212;-66
2023/05/21 10:08:17;;;;;;;5.85;4.50;;;25.70;1.00;;;;;;8365422;28;20189;-69
2023/05/21 10:12:21;;;;;;;6.95;4.50;;;25.80;1.00;;;;;;8338040;28;20186;-66
2023/05/21 10:16:23;;;;;;;4.90;4.30;;;26.00;1.00;;;;;;8351273;28;20206;-68
2023/05/21 10:20:25;;;;;;;5.28;4.40;;;26.10;1.00;;;;;;8358553;28;20182;-69
2023/05/21 10:24:26;;;;;;;9.05;4.50;;;26.20;1.00;;;;;;8353011;28;20214;-68
2023/05/21 10:28:33;;;;;;;4.88;4.25;;;26.20;1.00;;;;;;8344738;28;20188;-67
2023/05/21 10:32:34;;;;;;;6.10;4.50;;;26.40;1.00;;;;;;8350791;28;20192;-69
2023/05/21 10:36:37;;;;;;;6.93;4.50;;;26.50;1.00;;;;;;8353705;28;20238;-69
2023/05/21 10:40:37;;;;;;;5.47;4.75;;;26.40;1.00;;;;;;8352083;28;20194;-70
2023/05/21 10:45:18;;;;;;;6.88;4.47;;;26.30;1.00;;;;;;8344230;28;20185;-68
2023/05/21 10:49:33;;;;;;;6.55;4.63;;;26.30;1.00;;;;;;8337730;28;20280;-70
2023/05/21 10:53:52;;;;;;;9.23;4.82;;;26.60;1.00;;;;;;8348734;28;20191;-68
2023/05/21 10:58:12;;;;;;;5.50;4.72;;;26.60;1.00;;;;;;8347987;28;20234;-67
2023/05/21 11:02:18;;;;;;;7.90;5.15;;;26.40;1.00;;;;;;8350278;28;20183;-68
2023/05/21 11:06:28;;;;;;;7.65;4.40;;;26.40;1.00;;;;;;8348592;28;20197;-68
2023/05/21 11:10:44;;;;;;;6.05;4.45;;;26.50;1.00;;;;;;8349284;28;20225;-67
2023/05/21 11:14:57;;;;;;;5.28;4.72;;;26.20;1.00;;;;;;8344613;28;20255;-70
2023/05/21 11:18:59;;;;;;;6.95;4.97;;;26.50;1.00;;;;;;8350675;28;20200;-67
2023/05/21 11:23:03;;;;;;;10.55;5.47;;;26.40;1.00;;;;;;8351710;28;20206;-69
2023/05/21 11:27:05;;;;;;;6.38;5.43;;;26.60;1.00;;;;;;8348236;28;20189;-67
2023/05/21 11:31:37;;;;;;;5.07;4.43;;;26.90;1.00;;;;;;8352818;28;20186;-68
2023/05/21 11:35:44;;;;;;;5.63;4.20;;;27.00;1.00;;;;;;8345892;28;20220;-68
2023/05/21 11:39:46;;;;;;;6.45;4.32;;;27.20;1.00;;;;;;8338275;28;20182;-68
2023/05/21 11:44:00;;;;;;;4.38;3.97;;;27.10;1.00;;;;;;8348579;28;20182;-69
2023/05/21 11:48:02;;;;;;;6.32;4.57;;;27.30;1.00;;;;;;8342748;28;20189;-70
2023/05/21 11:52:05;;;;;;;6.22;4.68;;;27.40;1.00;;;;;;8353907;28;20182;-68
2023/05/21 11:56:10;;;;;;;4.78;3.92;;;27.80;1.00;;;;;;8344815;28;20206;-68
2023/05/21 12:00:15;;;;;;;5.45;4.35;;;28.20;1.00;;;;;;8348803;28;20186;-66
2023/05/21 12:04:16;;;;;;;4.93;4.43;;;28.20;1.00;;;;;;8352280;28;20228;-71
2023/05/21 12:08:24;;;;;;;5.30;4.10;;;28.10;1.00;;;;;;8351015;28;20213;-68
2023/05/21 12:12:26;;;;;;;4.45;3.83;;;27.90;1.00;;;;;;8344940;28;20182;-67
2023/05/21 12:16:27;;;;;;;7.15;4.13;;;27.80;1.00;;;;;;8348747;28;20217;-69
2023/05/21 12:20:31;;;;;;;6.35;4.07;;;27.70;1.00;;;;;;8348827;28;20185;-67
2023/05/21 12:24:34;;;;;;;7.47;4.18;;;27.50;1.00;;;;;;8342064;28;20178;-68
2023/05/21 12:28:36;;;;;;;6.07;4.05;;;27.50;1.00;;;;;;8344567;28;20194;-68
2023/05/21 12:32:42;;;;;;;7.20;3.97;;;27.50;1.00;;;;;;8346749;28;20182;-68
2023/05/21 12:36:50;;;;;;;4.22;3.83;;;27.50;1.00;;;;;;8344693;28;20277;-69
2023/05/21 12:40:51;;;;;;;5.00;3.55;;;27.50;1.00;;;;;;8347387;28;20254;-71
2023/05/21 12:44:56;;;;;;;6.30;3.80;;;27.60;1.00;;;;;;8357943;28;20244;-68
2023/05/21 12:48:57;;;;;;;6.78;3.65;;;27.60;1.00;;;;;;8350239;28;20184;-70
2023/05/21 12:52:59;;;;;;;6.70;3.85;;;27.70;1.00;;;;;;8343647;28;20197;-68
2023/05/21 12:57:27;;;;;;;3.55;3.05;;;27.70;1.00;;;;;;8351141;28;20266;-68
2023/05/21 13:01:28;;;;;;;5.53;4.05;;;27.60;1.00;;;;;;8313308;28;20205;-69
2023/05/21 13:05:29;;;;;;;4.53;3.35;;;27.60;1.00;;;;;;8348890;28;20206;-70
2023/05/21 13:09:33;;;;;;;6.07;2.92;;;27.80;1.00;;;;;;8346317;28;20236;-69
2023/05/21 13:13:34;;;;;;;6.57;3.60;;;27.80;1.00;;;;;;8341588;28;20195;-67
2023/05/21 13:17:35;;;;;;;6.00;3.78;;;28.00;1.00;;;;;;8347344;28;20213;-68
2023/05/21 13:21:36;;;;;;;4.97;3.30;;;28.00;1.00;;;;;;8348559;28;20272;-68
2023/05/21 13:25:37;;;;;;;3.63;3.33;;;28.10;1.00;;;;;;8353501;28;20190;-67
2023/05/21 13:29:38;;;;;;;4.22;3.42;;;28.10;1.00;;;;;;8335959;28;20186;-67
2023/05/21 13:33:42;;;;;;;3.80;3.00;;;28.30;1.00;;;;;;8353097;28;20197;-72
2023/05/21 13:37:47;;;;;;;6.78;2.95;;;28.20;1.00;;;;;;8342546;28;20210;-68
2023/05/21 13:41:48;;;;;;;2.85;2.58;;;28.10;1.00;;;;;;8358259;28;20183;-69
2023/05/21 13:45:50;;;;;;;3.30;2.78;;;27.80;1.00;;;;;;8348446;28;20187;-68
2023/05/21 13:49:51;;;;;;;6.88;3.13;;;27.90;1.00;;;;;;8348618;28;20185;-67
2023/05/21 13:53:52;;;;;;;8.32;3.10;;;27.90;1.00;;;;;;8349462;28;20319;-67
2023/05/21 13:57:53;;;;;;;5.63;2.95;;;27.70;1.00;;;;;;8353483;28;20214;-65
2023/05/21 14:01:54;;;;;;;8.80;2.90;;;27.50;1.00;;;;;;8352208;28;20209;-68
2023/05/21 14:05:56;;;;;;;6.10;3.20;;;27.50;1.00;;;;;;8349352;28;20186;-66
2023/05/21 14:10:00;;;;;;;5.95;3.05;;;27.30;1.00;;;;;;8343722;28;20202;-67
2023/05/21 14:14:01;;;;;;;6.88;2.30;;;27.40;1.00;;;;;;8351923;28;20189;-67
2023/05/21 14:18:06;;;;;;;4.80;2.63;;;27.50;1.00;;;;;;8364059;28;20178;-68
2023/05/21 14:22:07;;;;;;;3.85;2.63;;;27.50;1.00;;;;;;8358101;28;20213;-69
2023/05/21 14:26:08;;;;;;;5.80;2.85;;;27.20;1.00;;;;;;8348750;28;20201;-67
2023/05/21 14:30:10;;;;;;;2.72;2.42;;;27.00;1.00;;;;;;8350084;28;20283;-70
2023/05/21 14:34:11;;;;;;;4.75;2.50;;;27.20;1.00;;;;;;8366427;28;20200;-66
2023/05/21 14:38:12;;;;;;;4.45;2.58;;;27.60;1.00;;;;;;8350112;28;20239;-68
2023/05/21 14:42:14;;;;;;;2.50;2.30;;;27.90;1.00;;;;;;8350660;28;20188;-70
2023/05/21 14:46:15;;;;;;;5.28;2.80;;;28.00;1.00;;;;;;8347691;28;20182;-67
2023/05/21 14:50:16;;;;;;;5.90;2.40;;;27.90;1.00;;;;;;8350017;28;20190;-67
2023/05/21 14:54:17;;;;;;;3.05;2.60;;;28.00;1.00;;;;;;8349604;28;20193;-70
2023/05/21 14:58:18;;;;;;;4.13;2.65;;;27.80;1.00;;;;;;8346675;28;20185;-68
2023/05/21 15:02:19;;;;;;;5.10;2.53;;;27.60;1.00;;;;;;8348441;28;20228;-68
2023/05/21 15:06:21;;;;;;;3.10;2.40;;;27.50;1.00;;;;;;8348134;28;20193;-68
2023/05/21 15:10:25;;;;;;;5.18;4.07;;;27.20;1.00;;;;;;8356953;28;20271;-67
2023/05/21 15:14:27;;;;;;;3.95;2.85;;;27.30;1.00;;;;;;8347906;28;20248;-67
2023/05/21 15:18:28;;;;;;;3.30;2.63;;;27.20;1.00;;;;;;8348257;28;20190;-69
2023/05/21 15:22:32;;;;;;;5.95;2.60;;;27.10;1.00;;;;;;8344502;28;20194;-69
2023/05/21 15:26:34;;;;;;;3.17;2.63;;;27.10;1.00;;;;;;8368024;28;20203;-67
2023/05/21 15:30:35;;;;;;;5.28;3.08;;;27.10;1.00;;;;;;8354112;28;20184;-69
2023/05/21 15:34:36;;;;;;;5.38;3.03;;;27.00;1.00;;;;;;8347768;28;20217;-68
2023/05/21 15:38:36;;;;;;;3.60;2.83;;;26.90;1.00;;;;;;8353681;28;20190;-69
2023/05/21 15:42:37;;;;;;;9.02;3.10;;;27.00;1.00;;;;;;8343985;28;20206;-67
2023/05/21 15:46:38;;;;;;;2.97;2.17;;;27.00;1.00;;;;;;8349876;28;20232;-68
2023/05/21 15:50:39;;;;;;;4.05;2.40;;;27.00;1.00;;;;;;8348532;28;20189;-69
2023/05/21 15:54:40;;;;;;;4.55;2.60;;;26.90;1.00;;;;;;8349838;28;20210;-70
2023/05/21 15:58:41;;;;;;;2.88;2.58;;;26.90;1.00;;;;;;8344856;28;20937;-68
2023/05/21 16:02:42;;;;;;;5.03;3.40;;;26.90;1.00;;;;;;8348019;28;20201;-68
2023/05/21 16:06:43;;;;;;;5.95;2.58;;;26.80;1.00;;;;;;8341807;28;20275;-68
2023/05/21 16:10:44;;;;;;;3.65;2.83;;;26.50;1.00;;;;;;8346360;28;20201;-68
2023/05/21 16:14:48;;;;;;;5.18;2.45;;;26.40;1.00;;;;;;8342193;28;20212;-66
2023/05/21 16:18:49;;;;;;;2.83;2.53;;;26.30;1.00;;;;;;8346930;28;20182;-68
2023/05/21 16:22:50;;;;;;;5.20;2.78;;;26.20;1.00;;;;;;8346576;28;20273;-68
2023/05/21 16:26:51;;;;;;;2.92;2.47;;;26.00;1.00;;;;;;8347848;28;20178;-66
2023/05/21 16:30:53;;;;;;;3.97;2.75;;;25.80;1.00;;;;;;8341258;28;20190;-69
2023/05/21 16:34:54;;;;;;;4.32;2.80;;;25.60;1.00;;;;;;8346957;28;20234;-67
2023/05/21 16:38:54;;;;;;;3.88;2.80;;;25.50;1.00;;;;;;8350677;28;20186;-68
2023/05/21 16:42:59;;;;;;;4.70;2.92;;;25.40;1.00;;;;;;8344005;28;20214;-68
2023/05/21 16:47:03;;;;;;;4.68;3.10;;;25.40;1.00;;;;;;8345464;28;20242;-67
2023/05/21 16:51:04;;;;;;;3.53;2.55;;;25.40;1.00;;;;;;8344326;28;20224;-68
2023/05/21 16:55:05;;;;;;;3.88;3.10;;;25.40;1.00;;;;;;8339069;28;20206;-67
2023/05/21 16:59:06;;;;;;;5.32;3.25;;;25.40;1.00;;;;;;8344439;28;20180;-67
2023/05/21 17:03:07;;;;;;;3.88;3.42;;;25.40;1.00;;;;;;8349003;28;20240;-67
2023/05/21 17:07:08;;;;;;;4.32;3.63;;;25.40;1.00;;;;;;8341459;28;20217;-67
2023/05/21 17:11:09;;;;;;;4.35;3.70;;;25.50;1.00;;;;;;8345599;28;20195;-68
2023/05/21 17:15:10;;;;;;;5.80;2.65;;;25.50;1.00;;;;;;8341120;28;20217;-69
2023/05/21 17:19:13;;;;;;;5.20;2.70;;;25.40;1.00;;;;;;8363867;28;20192;-68
2023/05/21 17:23:15;;;;;;;3.47;2.58;;;25.20;1.00;;;;;;8356556;28;20183;-67
2023/05/21 17:27:18;;;;;;;4.97;2.72;;;25.00;1.00;;;;;;8339041;28;20242;-66
2023/05/21 17:31:20;;;;;;;6.20;3.30;;;24.90;1.00;;;;;;8344501;28;20241;-67
2023/05/21 17:35:21;;;;;;;4.97;3.47;;;24.70;1.00;;;;;;8343543;28;20204;-66
2023/05/21 17:39:22;;;;;;;6.83;3.20;;;24.50;1.00;;;;;;8341195;28;20298;-68
2023/05/21 17:43:26;;;;;;;3.53;2.60;;;24.30;1.00;;;;;;8348196;28;20186;-66
2023/05/21 17:47:27;;;;;;;4.47;2.97;;;24.20;1.00;;;;;;8346203;28;20186;-67
2023/05/21 17:51:28;;;;;;;6.30;3.30;;;24.00;1.00;;;;;;8347837;28;20182;-67
2023/05/21 17:55:29;;;;;;;4.27;2.80;;;23.80;1.00;;;;;;8349433;28;20212;-66
2023/05/21 17:59:30;;;;;;;5.60;2.53;;;23.60;1.00;;;;;;8344319;28;20182;-67
2023/05/21 18:03:31;;;;;;;3.50;2.80;;;23.40;1.00;;;;;;8341339;28;20201;-65
2023/05/21 18:07:32;;;;;;;3.30;2.63;;;23.20;1.00;;;;;;8338345;28;20193;-66
2023/05/21 18:11:33;;;;;;;5.50;2.90;;;23.00;1.00;;;;;;8358903;28;20197;-66
2023/05/21 18:15:34;;;;;;;4.80;3.47;;;22.80;1.00;;;;;;8340381;28;20304;-66
2023/05/21 18:19:38;;;;;;;4.97;3.20;;;22.70;1.00;;;;;;8346405;28;20189;-66
2023/05/21 18:23:39;;;;;;;6.87;4.80;;;22.50;1.00;;;;;;8349078;28;20183;-67
2023/05/21 18:27:40;;;;;;;8.37;4.87;;;22.40;1.00;;;;;;8349517;28;20193;-66
2023/05/21 18:31:44;;;;;;;7.10;5.00;;;22.30;1.00;;;;;;8345094;28;20189;-66
2023/05/21 18:35:45;;;;;;;5.97;4.20;;;22.10;1.00;;;;;;8347279;28;20243;-65
2023/05/21 18:39:46;;;;;;;4.90;3.80;;;22.00;1.00;;;;;;8346640;28;20186;-67
2023/05/21 18:43:47;;;;;;;3.70;3.30;;;21.80;1.00;;;;;;8347317;28;20182;-66
2023/05/21 18:47:48;;;;;;;6.53;4.60;;;21.70;1.00;;;;;;8348008;28;20194;-66
2023/05/21 18:51:49;;;;;;;6.87;3.93;;;21.70;1.00;;;;;;8352673;28;20217;-64
2023/05/21 18:55:50;;;;;;;8.43;5.73;;;21.60;1.00;;;;;;8356776;28;20339;-65
2023/05/21 18:59:51;;;;;;;6.83;3.70;;;21.50;1.00;;;;;;8350315;28;20185;-65
2023/05/21 19:03:52;;;;;;;9.03;4.97;;;21.40;1.00;;;;;;8350886;28;20197;-66
2023/05/21 19:07:53;;;;;;;6.73;3.57;;;21.20;1.00;;;;;;8341463;28;20206;-67
2023/05/21 19:11:55;;;;;;;11.93;7.43;;;21.20;1.00;;;;;;8351514;28;20200;-66
2023/05/21 19:15:57;;;;;;;7.40;4.70;;;21.00;1.00;;;;;;8352376;28;20233;-64
2023/05/21 19:19:58;;;;;;;10.83;6.70;;;21.00;1.00;;;;;;8350203;28;20183;-64
2023/05/21 19:24:02;;;;;;;8.17;4.87;;;20.90;1.00;;;;;;8352974;28;20276;-63
2023/05/21 19:28:04;;;;;;;8.03;3.87;;;20.80;1.00;;;;;;8350846;28;20213;-63
2023/05/21 19:32:05;;;;;;;5.13;3.47;;;20.70;1.00;;;;;;8339508;28;20274;-63
2023/05/21 19:36:06;;;;;;;9.00;4.57;;;20.50;1.00;;;;;;8348105;28;20244;-63
2023/05/21 19:40:08;;;;;;;8.20;6.07;;;20.30;1.00;;;;;;8346691;28;20181;-63
2023/05/21 19:44:09;;;;;;;8.93;6.47;;;20.10;1.00;;;;;;8353916;28;20178;-63
2023/05/21 19:48:11;;;;;;;7.60;4.63;;;20.00;1.00;;;;;;8347580;28;20192;-62
2023/05/21 19:52:15;;;;;;;4.30;3.30;;;19.80;1.00;;;;;;8349980;28;20218;-63
2023/05/21 19:56:23;;;;;;;5.27;3.60;;;19.70;1.00;;;;;;8344029;28;20206;-65
2023/05/21 20:00:25;;;;;;;6.47;4.20;;;19.50;1.00;;;;;;8346020;28;20246;-63
2023/05/21 20:04:32;;;;;;;7.73;4.17;;;19.40;1.00;;;;;;8347480;28;20216;-65
2023/05/21 20:08:34;;;;;;;8.17;5.77;;;19.20;1.00;;;;;;8361027;28;20282;-64
2023/05/21 20:12:35;;;;;;;10.17;6.40;;;19.00;1.00;;;;;;8351315;28;20182;-63
2023/05/21 20:16:36;;;;;;;8.23;5.83;;;18.90;1.00;;;;;;8349124;28;20279;-64
2023/05/21 20:20:38;;;;;;;7.00;4.93;;;18.80;1.00;;;;;;8356062;28;20188;-66
2023/05/21 20:24:39;;;;;;;6.37;3.80;;;18.70;1.00;;;;;;8345487;28;20186;-66
2023/05/21 20:28:40;;;;;;;6.20;4.47;;;18.60;1.00;;;;;;8346946;28;20199;-68
2023/05/21 20:32:41;;;;;;;5.73;4.33;;;18.50;1.00;;;;;;8348929;28;20203;-69
2023/05/21 20:36:42;;;;;;;7.50;4.20;;;18.40;1.00;;;;;;8341550;28;20264;-63
2023/05/21 20:40:43;;;;;;;5.00;3.63;;;18.30;1.00;;;;;;8356926;28;20268;-64
2023/05/21 20:44:44;;;;;;;5.40;3.30;;;18.20;1.00;;;;;;8350368;28;20193;-64
2023/05/21 20:48:46;;;;;;;5.67;3.90;;;18.10;4.80;;;;;;8349663;28;20178;-64
2023/05/21 20:52:47;;;;;;;6.60;3.97;;;17.90;12.20;;;;;;8346364;28;20236;-63
2023/05/21 20:56:49;;;;;;;8.90;5.27;;;17.80;15.90;;;;;;8347818;28;20228;-65
2023/05/21 21:00:50;;;;;;;5.83;4.07;;;17.60;25.10;;;;;;8346449;28;20182;-64